Wilmington, IL (60481)

9:59 PM CST on December 03, 2016 (GMT -0600)
Lavita Shores | | Change Station
Active Advisory: Winter Weather Advisory

Elev 558 ft 41.29 °N, 88.15 °W | Updated 46 seconds ago

Clear
Clear
29.1 °F
Feels Like 29 °F
N
0.0
Wind Variable Wind from South

Today
High -- | Low -- °F
--% Chance of Precip.
Yesterday
High -- | Low -- °F
Precip. -- in
Pressure 30.29 in
Visibility 10.0 miles
Clouds Clear
Windchill 29 °F
Dew Point 28 °F
Humidity 98%
Rainfall 0.00 in
Snow Depth Not available.
7:01 AM 4:23 PM
Waxing Crescent, 19% visible
METAR KJOT 040335Z AUTO 00000KT 10SM CLR 00/M02 A3029 RMK AO2 T00001023
Pressure 30.29 in
Visibility 10.0 miles
Clouds Clear
Windchill 29 °F
Dew Point 28 °F
Humidity 98%
Rainfall 0.00 in
Snow Depth Not available.
7:01 AM 4:23 PM
Waxing Crescent, 19% visible
METAR KJOT 040335Z AUTO 00000KT 10SM CLR 00/M02 A3029 RMK AO2 T00001023

10-Day Weather Forecast

Almanac

Astronomy

Dec. 03, 2016 Rise Set
Actual Time
Civil Twilight
Nautical Twilight
Astronomical Twilight
Moon
Length of Visible Light
Length of Day
Tomorrow will be .
, % of the Moon is Illuminated

Today's Extremes

State Highs State Lows

Community

WunderPhotos

Upload Photos

1,955,573 photos uploaded!

WunderBlog® & News

Nearby

Air Quality

  Air Quality AQ Index Pollutant
Not available.

Snow Depth

Station Depth Elevation

Earthquake Activity

City Distance Mag. Time & Date
Minimum magnitude displayed is 2.5.

Coastal Water Temperatures

Place Temperature

Stations

Nearby Weather Stations

Station Location Temp. Windchill Dew Point Humidity Wind Precip. Elev Updated Type
                   

Watches & Warnings

Winter Weather Advisory
Issued: 8:32 PM CST Dec. 3, 2016 – National Weather Service

... Winter Weather Advisory remains in effect from 7 am to 6 PM
CST Sunday...

* timing... light to moderate snow will begin from west to east
across northern Illinois during Sunday morning and continue
until sunset or slightly after.

* Snow accumulations... 2 to 4 inches of wet snow with the higher
amounts generally northwest of a line from Chicago to
Morris... to Peru.

* Main impact... slippery conditions are expected on untreated
surfaces creating hazardous travel.

* Other impacts... visibility may fall to around one half mile at
times causing an additional travel hazard.

* Note... impacts may be mitigated by mild Road temperatures on
heavily traveled roads... such as in the city of Chicago and
immediate suburbs.

Precautionary/preparedness actions...

A Winter Weather Advisory for snow means that periods of snow
will cause primarily travel difficulties. Be prepared for snow
covered roads and limited visibilities... and use caution while
driving.



Mtf